sensor_id;sensor_type;location;lat;lon;timestamp;pressure;altitude;pressure_sealevel;temperature;humidity
69593;BME280;56796;50.122;14.468;2023-01-26T00:02:59;985.64;;;0.49;100
69593;BME280;56796;50.122;14.468;2023-01-26T00:22:24;985.42;;;0.52;100
69593;BME280;56796;50.122;14.468;2023-01-26T00:41:50;985.24;;;0.45;100
69593;BME280;56796;50.122;14.468;2023-01-26T01:01:15;985.16;;;0.44;100
69593;BME280;56796;50.122;14.468;2023-01-26T01:20:40;985.2;;;0.49;100
69593;BME280;56796;50.122;14.468;2023-01-26T01:40:10;985.15;;;0.32;100
69593;BME280;56796;50.122;14.468;2023-01-26T01:59:33;984.95;;;0.42;100
69593;BME280;56796;50.122;14.468;2023-01-26T02:18:58;984.68;;;0.46;100
69593;BME280;56796;50.122;14.468;2023-01-26T02:38:24;984.62;;;0.27;100
69593;BME280;56796;50.122;14.468;2023-01-26T02:57:49;984.45;;;0.07;100
69593;BME280;56796;50.122;14.468;2023-01-26T03:17:14;984.22;;;0.1;100
69593;BME280;56796;50.122;14.468;2023-01-26T03:36:40;984.01;;;0.11;100
69593;BME280;56796;50.122;14.468;2023-01-26T03:56:06;984.02;;;0.07;100
69593;BME280;56796;50.122;14.468;2023-01-26T04:15:35;983.84;;;-0.09;100
69593;BME280;56796;50.122;14.468;2023-01-26T04:34:53;983.8;;;-0.05;100
69593;BME280;56796;50.122;14.468;2023-01-26T04:54:19;983.63;;;-0.19;100
69593;BME280;56796;50.122;14.468;2023-01-26T05:13:44;983.6;;;-0.22;100
69593;BME280;56796;50.122;14.468;2023-01-26T05:33:10;983.61;;;-0.19;100
69593;BME280;56796;50.122;14.468;2023-01-26T05:52:35;983.62;;;-0.18;100
69593;BME280;56796;50.122;14.468;2023-01-26T06:12:01;983.38;;;-0.19;100
69593;BME280;56796;50.122;14.468;2023-01-26T06:31:26;983.4;;;-0.13;100
69593;BME280;56796;50.122;14.468;2023-01-26T06:50:54;983.33;;;-0.14;100
69593;BME280;56796;50.122;14.468;2023-01-26T07:10:19;983.31;;;-0.04;100
69593;BME280;56796;50.122;14.468;2023-01-26T07:29:45;983.33;;;0.04;100
69593;BME280;56796;50.122;14.468;2023-01-26T07:49:11;983.42;;;0.12;100
69593;BME280;56796;50.122;14.468;2023-01-26T08:08:37;983.38;;;0.18;100
69593;BME280;56796;50.122;14.468;2023-01-26T08:28:03;983.27;;;0.28;100
69593;BME280;56796;50.122;14.468;2023-01-26T08:47:30;983.27;;;0.43;100
69593;BME280;56796;50.122;14.468;2023-01-26T09:06:57;983.33;;;0.42;100
69593;BME280;56796;50.122;14.468;2023-01-26T09:26:23;983.27;;;0.42;100
69593;BME280;56796;50.122;14.468;2023-01-26T09:45:52;983.2;;;0.33;100
69593;BME280;56796;50.122;14.468;2023-01-26T10:05:17;983.04;;;0.42;100
69593;BME280;56796;50.122;14.468;2023-01-26T10:24:41;982.99;;;0.48;100
69593;BME280;56796;50.122;14.468;2023-01-26T11:03:32;982.9;;;0.3;100
69593;BME280;56796;50.122;14.468;2023-01-26T11:22:59;982.84;;;0.28;100
69593;BME280;56796;50.122;14.468;2023-01-26T11:42:24;982.73;;;0.33;100
69593;BME280;56796;50.122;14.468;2023-01-26T12:01:49;982.62;;;0.5;100
69593;BME280;56796;50.122;14.468;2023-01-26T12:21:14;982.37;;;0.36;100
69593;BME280;56796;50.122;14.468;2023-01-26T12:40:39;982.06;;;0.25;100
69593;BME280;56796;50.122;14.468;2023-01-26T13:00:05;982.1;;;0.21;100
69593;BME280;56796;50.122;14.468;2023-01-26T13:19:33;981.93;;;0.34;100
69593;BME280;56796;50.122;14.468;2023-01-26T13:38:57;981.87;;;0.4;100
69593;BME280;56796;50.122;14.468;2023-01-26T13:58:23;981.78;;;0.38;100
69593;BME280;56796;50.122;14.468;2023-01-26T14:17:46;981.75;;;0.35;100
69593;BME280;56796;50.122;14.468;2023-01-26T14:37:11;981.76;;;0.32;100
69593;BME280;56796;50.122;14.468;2023-01-26T14:56:37;981.89;;;0.43;100
69593;BME280;56796;50.122;14.468;2023-01-26T15:16:03;981.79;;;0.32;100
69593;BME280;56796;50.122;14.468;2023-01-26T15:35:28;981.8;;;0.32;100
69593;BME280;56796;50.122;14.468;2023-01-26T15:54:53;981.87;;;0.33;100
69593;BME280;56796;50.122;14.468;2023-01-26T16:14:18;981.91;;;0.31;100
69593;BME280;56796;50.122;14.468;2023-01-26T16:33:43;981.88;;;0.32;100
69593;BME280;56796;50.122;14.468;2023-01-26T16:53:13;981.89;;;0.33;100
69593;BME280;56796;50.122;14.468;2023-01-26T17:12:35;982;;;0.26;100
69593;BME280;56796;50.122;14.468;2023-01-26T17:32:00;981.94;;;0.33;100
69593;BME280;56796;50.122;14.468;2023-01-26T17:51:26;981.97;;;0.25;100
69593;BME280;56796;50.122;14.468;2023-01-26T18:10:55;982.04;;;0.22;100
69593;BME280;56796;50.122;14.468;2023-01-26T18:30:17;982.1;;;0.14;100
69593;BME280;56796;50.122;14.468;2023-01-26T18:49:42;982.04;;;-0.03;100
69593;BME280;56796;50.122;14.468;2023-01-26T19:09:07;982.15;;;-0.11;100
69593;BME280;56796;50.122;14.468;2023-01-26T19:28:32;981.99;;;-0.19;100
69593;BME280;56796;50.122;14.468;2023-01-26T19:47:57;982.05;;;-0.16;100
69593;BME280;56796;50.122;14.468;2023-01-26T20:07:23;982.03;;;-0.2;100
69593;BME280;56796;50.122;14.468;2023-01-26T20:26:49;982;;;-0.24;100
69593;BME280;56796;50.122;14.468;2023-01-26T20:46:14;982.14;;;-0.36;100
69593;BME280;56796;50.122;14.468;2023-01-26T21:05:40;982.12;;;-0.37;100
69593;BME280;56796;50.122;14.468;2023-01-26T21:25:06;982.03;;;-0.47;100
69593;BME280;56796;50.122;14.468;2023-01-26T21:44:31;982.05;;;-0.54;100
69593;BME280;56796;50.122;14.468;2023-01-26T22:03:57;982.07;;;-0.58;100
69593;BME280;56796;50.122;14.468;2023-01-26T22:23:25;982.12;;;-0.61;100
69593;BME280;56796;50.122;14.468;2023-01-26T22:42:42;981.99;;;-0.64;100
69593;BME280;56796;50.122;14.468;2023-01-26T23:02:07;981.83;;;-0.68;100
69593;BME280;56796;50.122;14.468;2023-01-26T23:21:33;981.8;;;-0.77;100
69593;BME280;56796;50.122;14.468;2023-01-26T23:41:01;981.87;;;-0.89;100
